sensor_id;sensor_type;location;lat;lon;timestamp;temperature;humidity
74368;DHT22;64991;41.090;-8.118;2023-07-31T00:00:41;25.80;74.70
74368;DHT22;64991;41.090;-8.118;2023-07-31T00:05:45;25.90;74.60
74368;DHT22;64991;41.090;-8.118;2023-07-31T00:10:50;25.80;74.70
74368;DHT22;64991;41.090;-8.118;2023-07-31T00:15:56;25.90;74.70
74368;DHT22;64991;41.090;-8.118;2023-07-31T00:20:59;25.80;74.70
74368;DHT22;64991;41.090;-8.118;2023-07-31T00:26:03;25.90;74.80
74368;DHT22;64991;41.090;-8.118;2023-07-31T00:31:08;25.80;74.80
74368;DHT22;64991;41.090;-8.118;2023-07-31T00:36:12;25.80;74.70
74368;DHT22;64991;41.090;-8.118;2023-07-31T00:41:16;25.80;74.70
74368;DHT22;64991;41.090;-8.118;2023-07-31T00:46:21;25.70;74.90
74368;DHT22;64991;41.090;-8.118;2023-07-31T00:51:25;25.80;74.80
74368;DHT22;64991;41.090;-8.118;2023-07-31T00:56:28;25.80;74.80
74368;DHT22;64991;41.090;-8.118;2023-07-31T01:01:33;25.80;74.50
74368;DHT22;64991;41.090;-8.118;2023-07-31T01:06:38;25.80;74.70
74368;DHT22;64991;41.090;-8.118;2023-07-31T01:11:46;25.80;74.80
74368;DHT22;64991;41.090;-8.118;2023-07-31T01:16:55;25.80;74.70
74368;DHT22;64991;41.090;-8.118;2023-07-31T01:22:06;25.80;74.80
74368;DHT22;64991;41.090;-8.118;2023-07-31T01:27:21;25.80;74.70
74368;DHT22;64991;41.090;-8.118;2023-07-31T01:32:27;25.80;74.80
74368;DHT22;64991;41.090;-8.118;2023-07-31T01:37:32;25.80;74.60
74368;DHT22;64991;41.090;-8.118;2023-07-31T01:42:37;25.70;74.60
74368;DHT22;64991;41.090;-8.118;2023-07-31T01:47:40;25.70;74.60
74368;DHT22;64991;41.090;-8.118;2023-07-31T01:52:44;25.70;74.60
74368;DHT22;64991;41.090;-8.118;2023-07-31T01:57:49;25.70;74.40
74368;DHT22;64991;41.090;-8.118;2023-07-31T02:02:53;25.80;74.70
74368;DHT22;64991;41.090;-8.118;2023-07-31T02:07:57;25.80;74.60
74368;DHT22;64991;41.090;-8.118;2023-07-31T02:13:02;25.70;74.60
74368;DHT22;64991;41.090;-8.118;2023-07-31T02:18:06;25.80;74.70
74368;DHT22;64991;41.090;-8.118;2023-07-31T02:23:10;25.80;74.60
74368;DHT22;64991;41.090;-8.118;2023-07-31T02:28:14;25.80;74.40
74368;DHT22;64991;41.090;-8.118;2023-07-31T02:33:18;25.70;74.40
74368;DHT22;64991;41.090;-8.118;2023-07-31T02:38:22;25.80;74.40
74368;DHT22;64991;41.090;-8.118;2023-07-31T02:43:27;25.70;74.40
74368;DHT22;64991;41.090;-8.118;2023-07-31T02:48:31;25.80;74.50
74368;DHT22;64991;41.090;-8.118;2023-07-31T02:53:35;25.80;74.50
74368;DHT22;64991;41.090;-8.118;2023-07-31T02:58:40;25.70;74.50
74368;DHT22;64991;41.090;-8.118;2023-07-31T03:03:43;25.70;74.50
74368;DHT22;64991;41.090;-8.118;2023-07-31T03:08:47;25.70;74.10
74368;DHT22;64991;41.090;-8.118;2023-07-31T03:13:52;25.80;74.50
74368;DHT22;64991;41.090;-8.118;2023-07-31T03:18:56;25.70;74.40
74368;DHT22;64991;41.090;-8.118;2023-07-31T03:24:00;25.60;74.40
74368;DHT22;64991;41.090;-8.118;2023-07-31T03:29:05;25.70;74.30
74368;DHT22;64991;41.090;-8.118;2023-07-31T03:34:08;25.70;74.30
74368;DHT22;64991;41.090;-8.118;2023-07-31T03:39:12;25.70;74.40
74368;DHT22;64991;41.090;-8.118;2023-07-31T03:44:17;25.70;74.30
74368;DHT22;64991;41.090;-8.118;2023-07-31T03:49:20;25.70;74.30
74368;DHT22;64991;41.090;-8.118;2023-07-31T03:54:24;25.70;74.30
74368;DHT22;64991;41.090;-8.118;2023-07-31T03:59:29;25.70;74.20
74368;DHT22;64991;41.090;-8.118;2023-07-31T04:04:32;25.70;74.40
74368;DHT22;64991;41.090;-8.118;2023-07-31T04:09:37;25.60;74.20
74368;DHT22;64991;41.090;-8.118;2023-07-31T04:14:42;25.70;74.30
74368;DHT22;64991;41.090;-8.118;2023-07-31T04:19:45;25.70;74.30
74368;DHT22;64991;41.090;-8.118;2023-07-31T04:24:49;25.70;74.30
74368;DHT22;64991;41.090;-8.118;2023-07-31T04:29:54;25.70;74.20
74368;DHT22;64991;41.090;-8.118;2023-07-31T04:34:58;25.60;74.20
74368;DHT22;64991;41.090;-8.118;2023-07-31T04:40:01;25.70;74.00
74368;DHT22;64991;41.090;-8.118;2023-07-31T04:45:08;25.70;74.20
74368;DHT22;64991;41.090;-8.118;2023-07-31T04:50:12;25.60;74.10
74368;DHT22;64991;41.090;-8.118;2023-07-31T04:55:15;25.70;74.20
74368;DHT22;64991;41.090;-8.118;2023-07-31T05:00:21;25.70;74.10
74368;DHT22;64991;41.090;-8.118;2023-07-31T05:05:24;25.60;74.30
74368;DHT22;64991;41.090;-8.118;2023-07-31T05:10:28;25.70;73.90
74368;DHT22;64991;41.090;-8.118;2023-07-31T05:15:33;25.60;74.00
74368;DHT22;64991;41.090;-8.118;2023-07-31T05:20:37;25.60;74.00
74368;DHT22;64991;41.090;-8.118;2023-07-31T05:25:40;25.60;74.00
74368;DHT22;64991;41.090;-8.118;2023-07-31T05:30:46;25.60;74.00
74368;DHT22;64991;41.090;-8.118;2023-07-31T05:35:49;25.60;73.90
74368;DHT22;64991;41.090;-8.118;2023-07-31T05:40:53;25.60;73.80
74368;DHT22;64991;41.090;-8.118;2023-07-31T05:45:58;25.60;74.00
74368;DHT22;64991;41.090;-8.118;2023-07-31T05:51:03;25.60;73.90
74368;DHT22;64991;41.090;-8.118;2023-07-31T05:56:07;25.50;73.80
74368;DHT22;64991;41.090;-8.118;2023-07-31T06:01:11;25.60;73.90
74368;DHT22;64991;41.090;-8.118;2023-07-31T06:06:15;25.60;73.90
74368;DHT22;64991;41.090;-8.118;2023-07-31T06:11:19;25.60;74.00
74368;DHT22;64991;41.090;-8.118;2023-07-31T06:16:25;25.50;73.70
74368;DHT22;64991;41.090;-8.118;2023-07-31T06:21:29;25.50;73.90
74368;DHT22;64991;41.090;-8.118;2023-07-31T06:26:33;25.60;73.90
74368;DHT22;64991;41.090;-8.118;2023-07-31T06:31:38;25.60;74.00
74368;DHT22;64991;41.090;-8.118;2023-07-31T06:36:41;25.60;74.30
74368;DHT22;64991;41.090;-8.118;2023-07-31T06:41:45;25.60;73.90
74368;DHT22;64991;41.090;-8.118;2023-07-31T06:46:50;25.60;74.00
74368;DHT22;64991;41.090;-8.118;2023-07-31T06:51:53;25.50;73.80
74368;DHT22;64991;41.090;-8.118;2023-07-31T06:56:57;25.60;73.90
74368;DHT22;64991;41.090;-8.118;2023-07-31T07:02:02;25.60;74.20
74368;DHT22;64991;41.090;-8.118;2023-07-31T07:07:07;25.60;74.00
74368;DHT22;64991;41.090;-8.118;2023-07-31T07:12:11;25.50;74.10
74368;DHT22;64991;41.090;-8.118;2023-07-31T07:17:16;25.50;74.10
74368;DHT22;64991;41.090;-8.118;2023-07-31T07:22:20;25.60;74.10
74368;DHT22;64991;41.090;-8.118;2023-07-31T07:27:24;25.50;74.00
74368;DHT22;64991;41.090;-8.118;2023-07-31T07:32:29;25.60;73.90
74368;DHT22;64991;41.090;-8.118;2023-07-31T07:37:33;25.60;73.80
74368;DHT22;64991;41.090;-8.118;2023-07-31T07:42:36;25.60;74.10
74368;DHT22;64991;41.090;-8.118;2023-07-31T07:47:41;25.60;73.90
74368;DHT22;64991;41.090;-8.118;2023-07-31T07:52:45;25.60;74.20
74368;DHT22;64991;41.090;-8.118;2023-07-31T07:57:49;25.60;73.90
74368;DHT22;64991;41.090;-8.118;2023-07-31T08:02:54;25.60;74.20
74368;DHT22;64991;41.090;-8.118;2023-07-31T08:07:59;25.60;74.10
74368;DHT22;64991;41.090;-8.118;2023-07-31T08:13:03;25.60;74.20
74368;DHT22;64991;41.090;-8.118;2023-07-31T08:18:08;25.60;74.10
74368;DHT22;64991;41.090;-8.118;2023-07-31T08:23:14;25.70;74.30
74368;DHT22;64991;41.090;-8.118;2023-07-31T08:28:17;25.60;74.40
74368;DHT22;64991;41.090;-8.118;2023-07-31T08:33:23;25.60;74.20
74368;DHT22;64991;41.090;-8.118;2023-07-31T08:38:27;25.70;74.40
74368;DHT22;64991;41.090;-8.118;2023-07-31T08:43:31;25.60;74.20
74368;DHT22;64991;41.090;-8.118;2023-07-31T08:48:37;25.60;74.50
74368;DHT22;64991;41.090;-8.118;2023-07-31T08:53:41;25.60;74.60
74368;DHT22;64991;41.090;-8.118;2023-07-31T08:58:45;25.70;74.70
74368;DHT22;64991;41.090;-8.118;2023-07-31T09:03:51;25.70;74.70
74368;DHT22;64991;41.090;-8.118;2023-07-31T09:08:55;25.60;74.70
74368;DHT22;64991;41.090;-8.118;2023-07-31T09:13:58;25.70;74.80
74368;DHT22;64991;41.090;-8.118;2023-07-31T09:19:05;25.60;74.80
74368;DHT22;64991;41.090;-8.118;2023-07-31T09:24:08;25.60;74.70
74368;DHT22;64991;41.090;-8.118;2023-07-31T09:29:19;25.70;74.90
74368;DHT22;64991;41.090;-8.118;2023-07-31T09:34:27;25.70;74.90
74368;DHT22;64991;41.090;-8.118;2023-07-31T09:39:32;25.70;74.90
74368;DHT22;64991;41.090;-8.118;2023-07-31T09:44:39;25.70;74.80
74368;DHT22;64991;41.090;-8.118;2023-07-31T09:49:46;25.60;74.80
74368;DHT22;64991;41.090;-8.118;2023-07-31T09:54:50;25.70;75.00
74368;DHT22;64991;41.090;-8.118;2023-07-31T09:59:54;25.70;75.20
74368;DHT22;64991;41.090;-8.118;2023-07-31T10:05:00;25.70;75.30
74368;DHT22;64991;41.090;-8.118;2023-07-31T10:10:05;25.60;75.10
74368;DHT22;64991;41.090;-8.118;2023-07-31T10:15:11;25.60;75.40
74368;DHT22;64991;41.090;-8.118;2023-07-31T10:20:16;25.70;75.50
74368;DHT22;64991;41.090;-8.118;2023-07-31T10:25:20;25.60;75.50
74368;DHT22;64991;41.090;-8.118;2023-07-31T10:30:26;25.60;75.70
74368;DHT22;64991;41.090;-8.118;2023-07-31T10:35:32;25.60;75.70
74368;DHT22;64991;41.090;-8.118;2023-07-31T10:40:36;25.60;75.60
74368;DHT22;64991;41.090;-8.118;2023-07-31T10:45:42;25.70;75.40
74368;DHT22;64991;41.090;-8.118;2023-07-31T10:50:48;25.70;75.70
74368;DHT22;64991;41.090;-8.118;2023-07-31T10:55:52;25.70;75.70
74368;DHT22;64991;41.090;-8.118;2023-07-31T11:00:57;25.70;75.60
74368;DHT22;64991;41.090;-8.118;2023-07-31T11:06:04;25.80;75.70
74368;DHT22;64991;41.090;-8.118;2023-07-31T11:11:08;25.70;75.40
74368;DHT22;64991;41.090;-8.118;2023-07-31T11:16:13;25.70;75.60
74368;DHT22;64991;41.090;-8.118;2023-07-31T11:21:18;25.80;75.80
74368;DHT22;64991;41.090;-8.118;2023-07-31T11:26:24;25.70;75.60
74368;DHT22;64991;41.090;-8.118;2023-07-31T11:31:28;25.70;75.70
74368;DHT22;64991;41.090;-8.118;2023-07-31T11:36:33;25.80;75.70
74368;DHT22;64991;41.090;-8.118;2023-07-31T11:41:40;25.70;75.80
74368;DHT22;64991;41.090;-8.118;2023-07-31T11:46:44;25.70;75.90
74368;DHT22;64991;41.090;-8.118;2023-07-31T11:51:49;25.70;75.90
74368;DHT22;64991;41.090;-8.118;2023-07-31T11:56:52;25.70;75.80
74368;DHT22;64991;41.090;-8.118;2023-07-31T12:01:56;25.70;75.90
74368;DHT22;64991;41.090;-8.118;2023-07-31T12:07:01;25.70;76.00
74368;DHT22;64991;41.090;-8.118;2023-07-31T12:12:07;25.70;75.90
74368;DHT22;64991;41.090;-8.118;2023-07-31T12:17:11;25.70;75.90
74368;DHT22;64991;41.090;-8.118;2023-07-31T12:22:16;25.70;76.00
74368;DHT22;64991;41.090;-8.118;2023-07-31T12:27:20;25.70;75.90
74368;DHT22;64991;41.090;-8.118;2023-07-31T12:32:26;25.70;75.70
74368;DHT22;64991;41.090;-8.118;2023-07-31T12:37:36;25.70;75.90
74368;DHT22;64991;41.090;-8.118;2023-07-31T12:42:40;25.70;75.80
74368;DHT22;64991;41.090;-8.118;2023-07-31T12:47:44;25.80;75.90
74368;DHT22;64991;41.090;-8.118;2023-07-31T12:52:49;25.70;75.90
74368;DHT22;64991;41.090;-8.118;2023-07-31T12:57:53;25.70;76.20
74368;DHT22;64991;41.090;-8.118;2023-07-31T13:02:57;25.80;75.90
74368;DHT22;64991;41.090;-8.118;2023-07-31T13:08:03;25.70;76.10
74368;DHT22;64991;41.090;-8.118;2023-07-31T13:13:06;25.80;76.10
74368;DHT22;64991;41.090;-8.118;2023-07-31T13:18:10;25.70;76.20
74368;DHT22;64991;41.090;-8.118;2023-07-31T13:23:15;25.80;76.10
74368;DHT22;64991;41.090;-8.118;2023-07-31T13:28:19;25.70;76.10
74368;DHT22;64991;41.090;-8.118;2023-07-31T13:33:23;25.80;76.20
74368;DHT22;64991;41.090;-8.118;2023-07-31T13:38:40;25.70;76.10
74368;DHT22;64991;41.090;-8.118;2023-07-31T13:43:43;25.80;76.30
74368;DHT22;64991;41.090;-8.118;2023-07-31T13:48:47;25.70;76.20
74368;DHT22;64991;41.090;-8.118;2023-07-31T13:53:53;25.70;76.10
74368;DHT22;64991;41.090;-8.118;2023-07-31T13:58:57;25.70;76.30
74368;DHT22;64991;41.090;-8.118;2023-07-31T14:04:00;25.80;76.00
74368;DHT22;64991;41.090;-8.118;2023-07-31T14:09:06;25.80;75.90
74368;DHT22;64991;41.090;-8.118;2023-07-31T14:14:10;25.80;76.10
74368;DHT22;64991;41.090;-8.118;2023-07-31T14:19:14;25.70;76.10
74368;DHT22;64991;41.090;-8.118;2023-07-31T14:24:19;25.70;76.20
74368;DHT22;64991;41.090;-8.118;2023-07-31T14:29:24;25.80;76.20
74368;DHT22;64991;41.090;-8.118;2023-07-31T14:34:27;25.80;76.00
74368;DHT22;64991;41.090;-8.118;2023-07-31T14:39:32;25.80;76.10
74368;DHT22;64991;41.090;-8.118;2023-07-31T14:44:40;25.80;76.00
74368;DHT22;64991;41.090;-8.118;2023-07-31T14:49:43;25.80;76.00
74368;DHT22;64991;41.090;-8.118;2023-07-31T14:54:48;25.80;76.00
74368;DHT22;64991;41.090;-8.118;2023-07-31T14:59:52;25.80;76.10
74368;DHT22;64991;41.090;-8.118;2023-07-31T15:04:55;25.70;76.00
74368;DHT22;64991;41.090;-8.118;2023-07-31T15:10:00;25.70;76.10
74368;DHT22;64991;41.090;-8.118;2023-07-31T15:15:05;25.70;76.10
74368;DHT22;64991;41.090;-8.118;2023-07-31T15:20:10;25.70;76.00
74368;DHT22;64991;41.090;-8.118;2023-07-31T15:25:15;25.80;75.80
74368;DHT22;64991;41.090;-8.118;2023-07-31T15:30:19;25.80;76.20
74368;DHT22;64991;41.090;-8.118;2023-07-31T15:35:23;25.80;76.20
74368;DHT22;64991;41.090;-8.118;2023-07-31T15:40:28;25.80;76.20
74368;DHT22;64991;41.090;-8.118;2023-07-31T15:45:31;25.70;76.00
74368;DHT22;64991;41.090;-8.118;2023-07-31T15:50:35;25.80;75.70
74368;DHT22;64991;41.090;-8.118;2023-07-31T15:55:40;25.70;75.70
74368;DHT22;64991;41.090;-8.118;2023-07-31T16:00:44;25.70;76.10
74368;DHT22;64991;41.090;-8.118;2023-07-31T16:05:47;25.80;75.80
74368;DHT22;64991;41.090;-8.118;2023-07-31T16:10:52;25.70;75.80
74368;DHT22;64991;41.090;-8.118;2023-07-31T16:15:57;25.70;75.90
74368;DHT22;64991;41.090;-8.118;2023-07-31T16:21:01;25.80;76.00
74368;DHT22;64991;41.090;-8.118;2023-07-31T16:26:07;25.70;75.80
74368;DHT22;64991;41.090;-8.118;2023-07-31T16:31:10;25.80;75.90
74368;DHT22;64991;41.090;-8.118;2023-07-31T16:36:14;25.80;75.90
74368;DHT22;64991;41.090;-8.118;2023-07-31T16:41:21;25.80;76.00
74368;DHT22;64991;41.090;-8.118;2023-07-31T16:46:25;25.70;76.00
74368;DHT22;64991;41.090;-8.118;2023-07-31T16:51:30;25.80;76.10
74368;DHT22;64991;41.090;-8.118;2023-07-31T16:56:36;25.70;76.20
74368;DHT22;64991;41.090;-8.118;2023-07-31T17:01:59;25.80;76.00
74368;DHT22;64991;41.090;-8.118;2023-07-31T17:07:03;25.80;76.20
74368;DHT22;64991;41.090;-8.118;2023-07-31T17:12:08;25.80;76.00
74368;DHT22;64991;41.090;-8.118;2023-07-31T17:17:12;25.70;76.10
74368;DHT22;64991;41.090;-8.118;2023-07-31T17:22:16;25.80;75.90
74368;DHT22;64991;41.090;-8.118;2023-07-31T17:27:20;25.70;76.10
74368;DHT22;64991;41.090;-8.118;2023-07-31T17:32:25;25.80;76.10
74368;DHT22;64991;41.090;-8.118;2023-07-31T17:37:29;25.80;75.90
74368;DHT22;64991;41.090;-8.118;2023-07-31T17:42:34;25.80;76.00
74368;DHT22;64991;41.090;-8.118;2023-07-31T17:47:38;25.80;76.00
74368;DHT22;64991;41.090;-8.118;2023-07-31T17:52:41;25.70;76.20
74368;DHT22;64991;41.090;-8.118;2023-07-31T17:57:46;25.80;75.80
74368;DHT22;64991;41.090;-8.118;2023-07-31T18:02:50;25.80;75.80
74368;DHT22;64991;41.090;-8.118;2023-07-31T18:07:53;25.90;75.70
74368;DHT22;64991;41.090;-8.118;2023-07-31T18:12:58;25.80;75.70
74368;DHT22;64991;41.090;-8.118;2023-07-31T18:18:02;25.80;75.70
74368;DHT22;64991;41.090;-8.118;2023-07-31T18:23:05;25.80;75.70
74368;DHT22;64991;41.090;-8.118;2023-07-31T18:28:10;25.80;75.70
74368;DHT22;64991;41.090;-8.118;2023-07-31T18:33:14;25.80;75.70
74368;DHT22;64991;41.090;-8.118;2023-07-31T18:38:18;25.80;75.80
74368;DHT22;64991;41.090;-8.118;2023-07-31T18:43:23;25.80;75.70
74368;DHT22;64991;41.090;-8.118;2023-07-31T18:48:26;25.80;75.80
74368;DHT22;64991;41.090;-8.118;2023-07-31T18:53:32;25.90;76.00
74368;DHT22;64991;41.090;-8.118;2023-07-31T18:58:37;25.80;75.80
74368;DHT22;64991;41.090;-8.118;2023-07-31T19:03:41;25.90;76.10
74368;DHT22;64991;41.090;-8.118;2023-07-31T19:08:44;25.90;75.90
74368;DHT22;64991;41.090;-8.118;2023-07-31T19:13:51;25.90;76.00
74368;DHT22;64991;41.090;-8.118;2023-07-31T19:18:54;25.80;76.10
74368;DHT22;64991;41.090;-8.118;2023-07-31T19:23:58;25.80;76.20
74368;DHT22;64991;41.090;-8.118;2023-07-31T19:29:03;25.80;76.20
74368;DHT22;64991;41.090;-8.118;2023-07-31T19:34:07;25.80;76.00
74368;DHT22;64991;41.090;-8.118;2023-07-31T19:39:10;25.80;76.30
74368;DHT22;64991;41.090;-8.118;2023-07-31T19:44:15;25.80;76.30
74368;DHT22;64991;41.090;-8.118;2023-07-31T19:49:20;25.80;76.40
74368;DHT22;64991;41.090;-8.118;2023-07-31T19:54:24;25.90;76.30
74368;DHT22;64991;41.090;-8.118;2023-07-31T19:59:29;25.90;76.40
74368;DHT22;64991;41.090;-8.118;2023-07-31T20:04:32;25.90;76.70
74368;DHT22;64991;41.090;-8.118;2023-07-31T20:09:36;25.90;76.40
74368;DHT22;64991;41.090;-8.118;2023-07-31T20:14:41;25.80;76.80
74368;DHT22;64991;41.090;-8.118;2023-07-31T20:19:45;25.80;76.60
74368;DHT22;64991;41.090;-8.118;2023-07-31T20:24:49;25.90;76.90
74368;DHT22;64991;41.090;-8.118;2023-07-31T20:29:54;25.80;76.70
74368;DHT22;64991;41.090;-8.118;2023-07-31T20:34:57;25.90;76.90
74368;DHT22;64991;41.090;-8.118;2023-07-31T20:40:04;25.90;76.80
74368;DHT22;64991;41.090;-8.118;2023-07-31T20:45:11;25.90;77.00
74368;DHT22;64991;41.090;-8.118;2023-07-31T20:50:16;25.90;77.00
74368;DHT22;64991;41.090;-8.118;2023-07-31T20:55:19;25.90;77.10
74368;DHT22;64991;41.090;-8.118;2023-07-31T21:00:24;25.90;77.00
74368;DHT22;64991;41.090;-8.118;2023-07-31T21:05:28;25.90;77.00
74368;DHT22;64991;41.090;-8.118;2023-07-31T21:10:31;25.80;77.30
74368;DHT22;64991;41.090;-8.118;2023-07-31T21:15:39;25.90;77.10
74368;DHT22;64991;41.090;-8.118;2023-07-31T21:20:45;25.90;77.10
74368;DHT22;64991;41.090;-8.118;2023-07-31T21:25:50;25.90;77.30
74368;DHT22;64991;41.090;-8.118;2023-07-31T21:30:55;25.90;77.40
74368;DHT22;64991;41.090;-8.118;2023-07-31T21:35:58;25.80;77.20
74368;DHT22;64991;41.090;-8.118;2023-07-31T21:41:02;25.80;77.30
74368;DHT22;64991;41.090;-8.118;2023-07-31T21:46:08;25.90;77.50
74368;DHT22;64991;41.090;-8.118;2023-07-31T21:51:12;25.90;77.40
74368;DHT22;64991;41.090;-8.118;2023-07-31T21:56:15;25.90;77.40
74368;DHT22;64991;41.090;-8.118;2023-07-31T22:01:20;25.90;77.50
74368;DHT22;64991;41.090;-8.118;2023-07-31T22:06:24;25.90;77.50
74368;DHT22;64991;41.090;-8.118;2023-07-31T22:11:27;25.90;77.50
74368;DHT22;64991;41.090;-8.118;2023-07-31T22:16:33;25.90;77.50
74368;DHT22;64991;41.090;-8.118;2023-07-31T22:21:36;25.80;77.50
74368;DHT22;64991;41.090;-8.118;2023-07-31T22:26:41;25.90;77.30
74368;DHT22;64991;41.090;-8.118;2023-07-31T22:31:46;25.90;77.40
74368;DHT22;64991;41.090;-8.118;2023-07-31T22:36:49;25.90;77.50
74368;DHT22;64991;41.090;-8.118;2023-07-31T22:41:53;25.90;77.70
74368;DHT22;64991;41.090;-8.118;2023-07-31T22:46:57;25.80;77.60
74368;DHT22;64991;41.090;-8.118;2023-07-31T22:52:01;25.90;77.80
74368;DHT22;64991;41.090;-8.118;2023-07-31T22:57:05;25.90;77.80
74368;DHT22;64991;41.090;-8.118;2023-07-31T23:02:10;25.90;77.70
74368;DHT22;64991;41.090;-8.118;2023-07-31T23:07:14;25.90;77.60
74368;DHT22;64991;41.090;-8.118;2023-07-31T23:12:17;25.90;77.80
74368;DHT22;64991;41.090;-8.118;2023-07-31T23:17:22;25.90;78.00
74368;DHT22;64991;41.090;-8.118;2023-07-31T23:22:26;26.00;77.80
74368;DHT22;64991;41.090;-8.118;2023-07-31T23:27:29;25.90;78.00
74368;DHT22;64991;41.090;-8.118;2023-07-31T23:32:34;25.90;77.80
74368;DHT22;64991;41.090;-8.118;2023-07-31T23:37:38;25.90;77.80
74368;DHT22;64991;41.090;-8.118;2023-07-31T23:42:42;25.90;77.70
74368;DHT22;64991;41.090;-8.118;2023-07-31T23:47:46;25.90;77.90
74368;DHT22;64991;41.090;-8.118;2023-07-31T23:52:50;25.90;77.80
74368;DHT22;64991;41.090;-8.118;2023-07-31T23:57:53;25.90;78.00
